Main page
METAR-TAF:

METAR-TAF

Airports :

Inverness Airport

Inverness, Scotland

latitude: 57-32N, longitude: 004-03W, elevation: 9 m

Current weather observation

The report was made 26 minutes ago, at 08:50 UTC
Wind 13 kt from the Southwest
Temperature 9°C
Humidity 76%
Pressure 1028 hPa
Visibility 10 km or more
Few clouds at a height of 2000 ft
Broken clouds at a height of 3300 ft

METAR: EGPE 260850Z 23013KT 9999 FEW020 BKN033 09/05 Q1028

Time: 09:16 (09:16 UTC)

Forecast

The report was made 1 hour and 18 minutes ago, at 07:58 UTC
Forecast valid from 26 at 09 UTC to 26 at 18 UTC
Wind 12 kt from the Southwest
Visibility 10 km or more
Few clouds at a height of 1800 ft
Scattered clouds at a height of 3500 ft
Temporary
from 26 at 09 UTC to 26 at 18 UTC
Wind 18 kt from the Southwest with gusts up to 28 kt

TAF: EGPE 260758Z 2609/2618 22012KT 9999 FEW018 SCT035 TEMPO 2609/2618 23018G28KT

Weather observations and forecasts of more than 4000 airports (METAR and TAF reports).

The available stations are represented by yellow and red dots on the map.

Hover mouse over dot to see the name of the station.

Then click to see weather observations and forecasts.

To change the map : click on the green buttons with a black cross to zoom in, on the green button with a dash to zoom out, or on the green arrows for adjacent maps.


METAR-TAF: